Impacts METAR Board
IDs:

KVCT - Victoria Rgnl, TX, US

Updated at: 0600 UTC 19 Aug 2019
Potential Impact None Slight Moderate High
Time 18/18Z 18/19Z 18/20Z 18/21Z 18/22Z 18/23Z 19/00Z 19/01Z 19/02Z 19/03Z 19/04Z 19/05Z 19/06Z
Temp98 100 100 97 97 95 92 89 86 84 83 82 82
Dewpt72 71 73 73 72 69 71 73 75 76 77 77 77
Altim29.90 29.88 29.88 29.86 29.86 29.86 29.87 29.87 29.89 29.91 29.93 29.93 29.92
VIS10 10 10 10 10 10 10 10 10 10 10 10 10
CIG-- -- -- -- -- -- -- -- -- -- -- -- --
CoverFEWFEWFEWFEWCLRCLRCLRCLRCLRCLRCLRCLRCLR
FltCatVFRVFRVFRVFRVFRVFRVFRVFRVFRVFRVFRVFRVFR
WX--------------------------
WDir190180170170170170170140150130130140160
WSpd15 18 17 15 14 16 14 12 13 8 8 8 9
WGst21 25 26 24 20 -- -- -- -- -- -- -- --
Raw hourly METARs
KVCT 181751Z 19015G21KT 10SM FEW047 37/22 A2990 RMK AO2 SLP122 T03670222 10367 20267 58005
KVCT 181851Z 18018G25KT 10SM FEW049 FEW060 38/22 A2988 RMK AO2 PK WND 15028/1839 SLP115 T03780217
KVCT 181951Z 17017G26KT 10SM FEW046 38/23 A2988 RMK AO2 PK WND 17028/1909 SLP115 T03780228
KVCT 182051Z 17015G24KT 10SM FEW045 36/23 A2986 RMK AO2 PK WND 15026/2009 SLP108 T03610228 56014
KVCT 182151Z 17014G20KT 10SM CLR 36/22 A2986 RMK AO2 PK WND 17026/2114 SLP107 T03610222
KVCT 182251Z 17016KT 10SM CLR 35/21 A2986 RMK AO2 SLP109 T03500206
KVCT 182351Z 17014KT 10SM CLR 33/22 A2987 RMK AO2 SLP111 T03330217 10378 20333 53003
KVCT 190051Z 14012KT 10SM CLR 32/23 A2987 RMK AO2 SLP115 T03170228
KVCT 190151Z 15013KT 10SM CLR 30/24 A2989 RMK AO2 SLP118 T03000239
KVCT 190251Z AUTO 13008KT 10SM CLR 29/24 A2991 RMK AO2 SLP125 T02890244 53014
KVCT 190351Z AUTO 13008KT 10SM CLR 28/25 A2993 RMK AO2 SLP132 T02830250
KVCT 190451Z AUTO 14008KT 10SM CLR 28/25 A2993 RMK AO2 SLP134 T02780250
KVCT 190551Z AUTO 16009KT 10SM CLR 28/25 A2992 RMK AO2 SLP130 T02780250 10333 20278 403780261 50005



Page loaded:  06:16 UTC  |   11:16 PM Pacific  |   12:16 AM Mountain  |   01:16 AM Central  |   02:16 AM Eastern

 

ADVISORIES

FORECASTS

FORECASTS

OBSERVATIONS

USER TOOLS

ABOUT US